sensor_id;sensor_type;location;lat;lon;timestamp;pressure;altitude;pressure_sealevel;temperature;humidity
4705;BME280;2366;51.332;6.610;2024-03-06T00:02:18;101612.53;;;9.27;65.28
4705;BME280;2366;51.332;6.610;2024-03-06T00:04:43;101604.88;;;9.19;65.51
4705;BME280;2366;51.332;6.610;2024-03-06T00:07:09;101609.47;;;9.16;65.93
4705;BME280;2366;51.332;6.610;2024-03-06T00:09:34;101614.75;;;9.16;65.87
4705;BME280;2366;51.332;6.610;2024-03-06T00:11:59;101618.44;;;9.12;65.67
4705;BME280;2366;51.332;6.610;2024-03-06T00:14:25;101608.16;;;9.04;65.74
4705;BME280;2366;51.332;6.610;2024-03-06T00:16:50;101611.81;;;9.01;66.05
4705;BME280;2366;51.332;6.610;2024-03-06T00:19:17;101617.91;;;9.03;65.94
4705;BME280;2366;51.332;6.610;2024-03-06T00:21:42;101618.88;;;9.01;65.53
4705;BME280;2366;51.332;6.610;2024-03-06T00:24:08;101620.78;;;8.97;65.73
4705;BME280;2366;51.332;6.610;2024-03-06T00:26:33;101618.84;;;9.02;65.76
4705;BME280;2366;51.332;6.610;2024-03-06T00:28:59;101617.94;;;9.02;65.71
4705;BME280;2366;51.332;6.610;2024-03-06T00:31:24;101620.78;;;8.97;64.99
4705;BME280;2366;51.332;6.610;2024-03-06T00:33:50;101616.69;;;8.90;64.96
4705;BME280;2366;51.332;6.610;2024-03-06T00:36:15;101624.97;;;8.81;65.57
4705;BME280;2366;51.332;6.610;2024-03-06T00:38:40;101626.81;;;8.79;65.36
4705;BME280;2366;51.332;6.610;2024-03-06T00:41:06;101633.94;;;8.77;65.40
4705;BME280;2366;51.332;6.610;2024-03-06T00:43:31;101633.94;;;8.77;65.34
4705;BME280;2366;51.332;6.610;2024-03-06T00:45:56;101637.50;;;8.76;65.63
4705;BME280;2366;51.332;6.610;2024-03-06T00:48:22;101644.47;;;8.78;65.54
4705;BME280;2366;51.332;6.610;2024-03-06T00:50:47;101642.78;;;8.76;65.02
4705;BME280;2366;51.332;6.610;2024-03-06T00:53:13;101657.75;;;8.77;65.50
4705;BME280;2366;51.332;6.610;2024-03-06T00:55:38;101658.75;;;8.74;65.06
4705;BME280;2366;51.332;6.610;2024-03-06T00:58:05;101653.69;;;8.68;65.14
4705;BME280;2366;51.332;6.610;2024-03-06T01:00:31;101658.16;;;8.66;65.05
4705;BME280;2366;51.332;6.610;2024-03-06T01:02:57;101675.81;;;8.66;65.29
4705;BME280;2366;51.332;6.610;2024-03-06T01:05:22;101668.13;;;8.59;65.11
4705;BME280;2366;51.332;6.610;2024-03-06T01:07:48;101676.22;;;8.55;65.20
4705;BME280;2366;51.332;6.610;2024-03-06T01:10:13;101679.78;;;8.54;65.16
4705;BME280;2366;51.332;6.610;2024-03-06T01:12:39;101684.06;;;8.56;65.60
4705;BME280;2366;51.332;6.610;2024-03-06T01:15:05;101687.53;;;8.58;65.85
4705;BME280;2366;51.332;6.610;2024-03-06T01:17:31;101680.28;;;8.63;65.50
4705;BME280;2366;51.332;6.610;2024-03-06T01:19:56;101681.81;;;8.69;65.57
4705;BME280;2366;51.332;6.610;2024-03-06T01:22:22;101674.59;;;8.74;65.54
4705;BME280;2366;51.332;6.610;2024-03-06T01:24:47;101674.41;;;8.79;65.64
4705;BME280;2366;51.332;6.610;2024-03-06T01:27:16;101682.78;;;8.90;65.80
4705;BME280;2366;51.332;6.610;2024-03-06T01:29:41;101685.78;;;9.04;66.19
4705;BME280;2366;51.332;6.610;2024-03-06T01:32:07;101691.72;;;9.10;66.14
4705;BME280;2366;51.332;6.610;2024-03-06T01:34:32;101686.00;;;9.20;65.98
4705;BME280;2366;51.332;6.610;2024-03-06T01:36:58;101689.94;;;9.32;66.13
4705;BME280;2366;51.332;6.610;2024-03-06T01:39:23;101696.63;;;9.41;66.65
4705;BME280;2366;51.332;6.610;2024-03-06T01:41:49;101690.09;;;9.50;66.36
4705;BME280;2366;51.332;6.610;2024-03-06T01:44:18;101697.59;;;9.60;66.34
4705;BME280;2366;51.332;6.610;2024-03-06T01:46:44;101698.16;;;9.69;66.23
4705;BME280;2366;51.332;6.610;2024-03-06T01:49:11;101684.84;;;9.70;66.20
4705;BME280;2366;51.332;6.610;2024-03-06T01:51:39;101690.75;;;9.77;66.34
4705;BME280;2366;51.332;6.610;2024-03-06T01:54:06;101691.34;;;9.83;66.16
4705;BME280;2366;51.332;6.610;2024-03-06T01:56:35;101697.44;;;9.85;66.17
4705;BME280;2366;51.332;6.610;2024-03-06T01:59:01;101691.09;;;9.90;66.01
4705;BME280;2366;51.332;6.610;2024-03-06T02:01:27;101689.09;;;9.95;66.25
4705;BME280;2366;51.332;6.610;2024-03-06T02:03:53;101694.97;;;10.01;66.37
4705;BME280;2366;51.332;6.610;2024-03-06T02:06:19;101692.13;;;10.06;66.21
4705;BME280;2366;51.332;6.610;2024-03-06T02:08:48;101699.22;;;10.05;66.27
4705;BME280;2366;51.332;6.610;2024-03-06T02:11:14;101687.78;;;10.05;66.31
4705;BME280;2366;51.332;6.610;2024-03-06T02:13:40;101705.78;;;10.17;66.04
4705;BME280;2366;51.332;6.610;2024-03-06T02:16:07;101707.22;;;10.24;66.27
4705;BME280;2366;51.332;6.610;2024-03-06T02:18:32;101706.16;;;10.30;66.33
4705;BME280;2366;51.332;6.610;2024-03-06T02:20:58;101699.28;;;10.24;66.76
4705;BME280;2366;51.332;6.610;2024-03-06T02:23:23;101706.44;;;10.22;66.63
4705;BME280;2366;51.332;6.610;2024-03-06T02:25:50;101705.25;;;10.30;66.78
4705;BME280;2366;51.332;6.610;2024-03-06T02:28:16;101701.44;;;10.37;67.13
4705;BME280;2366;51.332;6.610;2024-03-06T02:30:42;101706.59;;;10.40;66.99
4705;BME280;2366;51.332;6.610;2024-03-06T02:33:07;101702.81;;;10.45;66.99
4705;BME280;2366;51.332;6.610;2024-03-06T02:35:34;101693.97;;;10.45;66.88
4705;BME280;2366;51.332;6.610;2024-03-06T02:38:01;101699.16;;;10.48;66.84
4705;BME280;2366;51.332;6.610;2024-03-06T02:40:28;101692.09;;;10.47;66.82
4705;BME280;2366;51.332;6.610;2024-03-06T02:42:54;101693.97;;;10.45;66.78
4705;BME280;2366;51.332;6.610;2024-03-06T02:45:19;101693.19;;;10.43;66.88
4705;BME280;2366;51.332;6.610;2024-03-06T02:47:44;101692.25;;;10.44;66.71
4705;BME280;2366;51.332;6.610;2024-03-06T02:50:10;101693.47;;;10.37;67.21
4705;BME280;2366;51.332;6.610;2024-03-06T02:52:35;101684.72;;;10.35;67.18
4705;BME280;2366;51.332;6.610;2024-03-06T02:55:01;101694.78;;;10.26;67.22
4705;BME280;2366;51.332;6.610;2024-03-06T02:57:27;101696.41;;;10.31;67.21
4705;BME280;2366;51.332;6.610;2024-03-06T02:59:57;101693.81;;;10.29;67.23
4705;BME280;2366;51.332;6.610;2024-03-06T03:02:22;101696.78;;;10.21;67.26
4705;BME280;2366;51.332;6.610;2024-03-06T03:04:49;101700.59;;;10.14;67.17
4705;BME280;2366;51.332;6.610;2024-03-06T03:07:15;101693.88;;;10.07;67.31
4705;BME280;2366;51.332;6.610;2024-03-06T03:09:40;101701.16;;;10.02;67.38
4705;BME280;2366;51.332;6.610;2024-03-06T03:12:06;101700.63;;;9.94;67.31
4705;BME280;2366;51.332;6.610;2024-03-06T03:14:31;101709.84;;;9.85;66.79
4705;BME280;2366;51.332;6.610;2024-03-06T03:16:56;101707.75;;;9.71;66.92
4705;BME280;2366;51.332;6.610;2024-03-06T03:19:22;101698.66;;;9.56;66.54
4705;BME280;2366;51.332;6.610;2024-03-06T03:21:47;101701.88;;;9.42;66.30
4705;BME280;2366;51.332;6.610;2024-03-06T03:24:13;101698.88;;;9.30;66.50
4705;BME280;2366;51.332;6.610;2024-03-06T03:26:38;101700.16;;;9.19;66.55
4705;BME280;2366;51.332;6.610;2024-03-06T03:29:03;101705.56;;;9.16;66.76
4705;BME280;2366;51.332;6.610;2024-03-06T03:31:29;101701.38;;;9.11;66.56
4705;BME280;2366;51.332;6.610;2024-03-06T03:33:54;101706.94;;;9.04;66.49
4705;BME280;2366;51.332;6.610;2024-03-06T03:36:20;101702.69;;;9.00;66.28
4705;BME280;2366;51.332;6.610;2024-03-06T03:38:45;101706.47;;;8.93;66.24
4705;BME280;2366;51.332;6.610;2024-03-06T03:41:11;101714.41;;;8.93;67.29
4705;BME280;2366;51.332;6.610;2024-03-06T03:43:42;101721.19;;;9.00;66.73
4705;BME280;2366;51.332;6.610;2024-03-06T03:46:07;101720.41;;;8.98;66.67
4705;BME280;2366;51.332;6.610;2024-03-06T03:48:34;101716.25;;;8.91;66.57
4705;BME280;2366;51.332;6.610;2024-03-06T03:51:02;101719.94;;;8.87;66.76
4705;BME280;2366;51.332;6.610;2024-03-06T03:53:32;101715.78;;;8.80;65.98
4705;BME280;2366;51.332;6.610;2024-03-06T03:55:59;101716.16;;;8.71;66.10
4705;BME280;2366;51.332;6.610;2024-03-06T03:58:24;101717.22;;;8.65;65.93
4705;BME280;2366;51.332;6.610;2024-03-06T04:00:50;101722.66;;;8.62;66.36
4705;BME280;2366;51.332;6.610;2024-03-06T04:03:19;101726.38;;;8.56;66.05
4705;BME280;2366;51.332;6.610;2024-03-06T04:05:46;101723.91;;;8.52;66.25
4705;BME280;2366;51.332;6.610;2024-03-06T04:08:12;101729.09;;;8.55;66.15
4705;BME280;2366;51.332;6.610;2024-03-06T04:10:37;101740.66;;;8.52;65.78
4705;BME280;2366;51.332;6.610;2024-03-06T04:13:02;101748.63;;;8.51;65.73
4705;BME280;2366;51.332;6.610;2024-03-06T04:15:28;101743.44;;;8.48;65.52
4705;BME280;2366;51.332;6.610;2024-03-06T04:17:54;101747.75;;;8.50;65.98
4705;BME280;2366;51.332;6.610;2024-03-06T04:20:19;101752.97;;;8.52;65.87
4705;BME280;2366;51.332;6.610;2024-03-06T04:22:44;101764.31;;;8.55;66.32
4705;BME280;2366;51.332;6.610;2024-03-06T04:25:11;101754.53;;;8.57;65.93
4705;BME280;2366;51.332;6.610;2024-03-06T04:27:37;101755.78;;;8.47;65.49
4705;BME280;2366;51.332;6.610;2024-03-06T04:30:03;101760.25;;;8.45;65.44
4705;BME280;2366;51.332;6.610;2024-03-06T04:32:29;101766.53;;;8.42;65.93
4705;BME280;2366;51.332;6.610;2024-03-06T04:34:54;101770.97;;;8.42;65.90
4705;BME280;2366;51.332;6.610;2024-03-06T04:37:21;101774.59;;;8.38;65.69
4705;BME280;2366;51.332;6.610;2024-03-06T04:39:47;101778.81;;;8.43;66.07
4705;BME280;2366;51.332;6.610;2024-03-06T04:42:13;101775.38;;;8.41;65.57
4705;BME280;2366;51.332;6.610;2024-03-06T04:44:38;101787.91;;;8.35;66.02
4705;BME280;2366;51.332;6.610;2024-03-06T04:47:03;101784.59;;;8.28;65.26
4705;BME280;2366;51.332;6.610;2024-03-06T04:49:33;101794.44;;;8.25;65.33
4705;BME280;2366;51.332;6.610;2024-03-06T04:51:59;101788.38;;;8.21;65.37
4705;BME280;2366;51.332;6.610;2024-03-06T04:54:24;101808.75;;;8.17;65.59
4705;BME280;2366;51.332;6.610;2024-03-06T04:56:49;101795.63;;;8.16;65.13
4705;BME280;2366;51.332;6.610;2024-03-06T04:59:15;101800.19;;;8.11;65.49
4705;BME280;2366;51.332;6.610;2024-03-06T05:01:40;101806.44;;;8.08;65.11
4705;BME280;2366;51.332;6.610;2024-03-06T05:04:06;101804.00;;;8.02;65.35
4705;BME280;2366;51.332;6.610;2024-03-06T05:06:32;101800.66;;;7.97;64.88
4705;BME280;2366;51.332;6.610;2024-03-06T05:08:57;101792.06;;;7.90;65.18
4705;BME280;2366;51.332;6.610;2024-03-06T05:11:22;101798.47;;;7.83;65.43
4705;BME280;2366;51.332;6.610;2024-03-06T05:13:48;101802.00;;;7.82;65.67
4705;BME280;2366;51.332;6.610;2024-03-06T05:16:14;101812.50;;;7.85;65.60
4705;BME280;2366;51.332;6.610;2024-03-06T05:18:39;101820.34;;;7.87;65.54
4705;BME280;2366;51.332;6.610;2024-03-06T05:21:05;101806.41;;;7.83;65.33
4705;BME280;2366;51.332;6.610;2024-03-06T05:23:30;101811.72;;;7.81;65.58
4705;BME280;2366;51.332;6.610;2024-03-06T05:25:56;101815.38;;;7.77;65.23
4705;BME280;2366;51.332;6.610;2024-03-06T05:28:21;101820.59;;;7.79;65.73
4705;BME280;2366;51.332;6.610;2024-03-06T05:30:46;101833.69;;;7.82;65.45
4705;BME280;2366;51.332;6.610;2024-03-06T05:33:12;101832.84;;;7.81;65.68
4705;BME280;2366;51.332;6.610;2024-03-06T05:35:38;101832.88;;;7.80;65.40
4705;BME280;2366;51.332;6.610;2024-03-06T05:38:03;101836.34;;;7.82;65.27
4705;BME280;2366;51.332;6.610;2024-03-06T05:40:29;101836.72;;;7.70;65.20
4705;BME280;2366;51.332;6.610;2024-03-06T05:43:00;101837.84;;;7.63;66.14
4705;BME280;2366;51.332;6.610;2024-03-06T05:45:25;101849.25;;;7.63;65.83
4705;BME280;2366;51.332;6.610;2024-03-06T05:47:52;101847.53;;;7.62;65.79
4705;BME280;2366;51.332;6.610;2024-03-06T05:50:18;101857.94;;;7.67;65.48
4705;BME280;2366;51.332;6.610;2024-03-06T05:52:43;101850.13;;;7.64;65.59
4705;BME280;2366;51.332;6.610;2024-03-06T05:55:09;101858.97;;;7.61;65.27
4705;BME280;2366;51.332;6.610;2024-03-06T05:57:34;101859.09;;;7.58;65.46
4705;BME280;2366;51.332;6.610;2024-03-06T06:00:00;101859.28;;;7.52;65.62
4705;BME280;2366;51.332;6.610;2024-03-06T06:02:25;101875.84;;;7.57;65.33
4705;BME280;2366;51.332;6.610;2024-03-06T06:04:50;101879.31;;;7.59;65.55
4705;BME280;2366;51.332;6.610;2024-03-06T06:07:17;101877.72;;;7.53;65.37
4705;BME280;2366;51.332;6.610;2024-03-06T06:09:43;101884.97;;;7.47;65.56
4705;BME280;2366;51.332;6.610;2024-03-06T06:12:08;101880.50;;;7.49;65.87
4705;BME280;2366;51.332;6.610;2024-03-06T06:14:34;101884.66;;;7.56;65.65
4705;BME280;2366;51.332;6.610;2024-03-06T06:16:59;101884.38;;;7.65;66.02
4705;BME280;2366;51.332;6.610;2024-03-06T06:19:24;101887.47;;;7.79;66.29
4705;BME280;2366;51.332;6.610;2024-03-06T06:21:52;101902.31;;;7.84;65.38
4705;BME280;2366;51.332;6.610;2024-03-06T06:24:18;101901.50;;;7.81;65.47
4705;BME280;2366;51.332;6.610;2024-03-06T06:26:44;101899.66;;;7.84;65.64
4705;BME280;2366;51.332;6.610;2024-03-06T06:29:09;101903.03;;;7.89;65.76
4705;BME280;2366;51.332;6.610;2024-03-06T06:31:35;101894.13;;;7.91;64.78
4705;BME280;2366;51.332;6.610;2024-03-06T06:34:00;101903.81;;;7.92;65.37
4705;BME280;2366;51.332;6.610;2024-03-06T06:36:26;101914.09;;;8.00;65.38
4705;BME280;2366;51.332;6.610;2024-03-06T06:38:53;101914.00;;;8.05;65.12
4705;BME280;2366;51.332;6.610;2024-03-06T06:41:19;101923.31;;;8.15;64.89
4705;BME280;2366;51.332;6.610;2024-03-06T06:43:45;101929.28;;;8.21;65.12
4705;BME280;2366;51.332;6.610;2024-03-06T06:46:10;101928.94;;;8.32;65.39
4705;BME280;2366;51.332;6.610;2024-03-06T06:48:36;101928.44;;;8.48;65.11
4705;BME280;2366;51.332;6.610;2024-03-06T06:51:01;101927.50;;;8.50;64.93
4705;BME280;2366;51.332;6.610;2024-03-06T06:53:30;101927.06;;;8.62;65.17
4705;BME280;2366;51.332;6.610;2024-03-06T06:55:56;101938.88;;;8.79;64.83
4705;BME280;2366;51.332;6.610;2024-03-06T06:58:22;101940.81;;;8.99;64.65
4705;BME280;2366;51.332;6.610;2024-03-06T07:00:48;101946.22;;;9.92;64.68
4705;BME280;2366;51.332;6.610;2024-03-06T07:03:13;101949.22;;;10.91;63.11
4705;BME280;2366;51.332;6.610;2024-03-06T07:05:38;101952.75;;;11.70;61.67
4705;BME280;2366;51.332;6.610;2024-03-06T07:08:06;101948.31;;;12.45;61.09
4705;BME280;2366;51.332;6.610;2024-03-06T07:10:36;101962.97;;;12.89;60.97
4705;BME280;2366;51.332;6.610;2024-03-06T07:13:02;101954.44;;;12.82;59.81
4705;BME280;2366;51.332;6.610;2024-03-06T07:15:28;101968.88;;;13.11;58.30
4705;BME280;2366;51.332;6.610;2024-03-06T07:17:54;101971.25;;;13.51;58.93
4705;BME280;2366;51.332;6.610;2024-03-06T07:20:19;101964.88;;;14.03;58.15
4705;BME280;2366;51.332;6.610;2024-03-06T07:22:44;101966.56;;;14.51;57.32
4705;BME280;2366;51.332;6.610;2024-03-06T07:25:10;101971.66;;;14.86;56.46
4705;BME280;2366;51.332;6.610;2024-03-06T07:27:35;101968.84;;;14.73;56.32
4705;BME280;2366;51.332;6.610;2024-03-06T07:30:01;101975.72;;;15.08;56.57
4705;BME280;2366;51.332;6.610;2024-03-06T07:32:26;101975.91;;;15.91;56.03
4705;BME280;2366;51.332;6.610;2024-03-06T07:34:52;101974.75;;;16.36;55.30
4705;BME280;2366;51.332;6.610;2024-03-06T07:37:17;101980.34;;;16.19;54.60
4705;BME280;2366;51.332;6.610;2024-03-06T07:39:43;101984.88;;;16.86;54.01
4705;BME280;2366;51.332;6.610;2024-03-06T07:42:08;101982.13;;;17.51;52.99
4705;BME280;2366;51.332;6.610;2024-03-06T07:44:35;101982.97;;;17.64;52.59
4705;BME280;2366;51.332;6.610;2024-03-06T07:47:01;101985.13;;;18.22;51.50
4705;BME280;2366;51.332;6.610;2024-03-06T07:49:26;101985.31;;;18.43;50.26
4705;BME280;2366;51.332;6.610;2024-03-06T07:51:53;101990.19;;;18.38;50.65
4705;BME280;2366;51.332;6.610;2024-03-06T07:54:18;101995.16;;;18.79;49.47
4705;BME280;2366;51.332;6.610;2024-03-06T07:56:44;101990.75;;;19.36;48.80
4705;BME280;2366;51.332;6.610;2024-03-06T07:59:09;101998.88;;;19.70;47.57
4705;BME280;2366;51.332;6.610;2024-03-06T08:01:37;101996.81;;;19.74;46.18
4705;BME280;2366;51.332;6.610;2024-03-06T08:04:03;102001.28;;;20.18;45.27
4705;BME280;2366;51.332;6.610;2024-03-06T08:06:28;102001.88;;;20.22;44.59
4705;BME280;2366;51.332;6.610;2024-03-06T08:08:54;102008.03;;;19.90;42.03
4705;BME280;2366;51.332;6.610;2024-03-06T08:11:20;102006.59;;;18.46;44.35
4705;BME280;2366;51.332;6.610;2024-03-06T08:13:46;102006.03;;;17.54;46.24
4705;BME280;2366;51.332;6.610;2024-03-06T08:16:12;102009.63;;;18.41;45.74
4705;BME280;2366;51.332;6.610;2024-03-06T08:18:37;102018.06;;;19.54;43.75
4705;BME280;2366;51.332;6.610;2024-03-06T08:21:03;102017.91;;;20.56;42.09
4705;BME280;2366;51.332;6.610;2024-03-06T08:23:30;102027.19;;;21.06;40.66
4705;BME280;2366;51.332;6.610;2024-03-06T08:25:55;102029.47;;;21.11;40.88
4705;BME280;2366;51.332;6.610;2024-03-06T08:28:21;102031.44;;;21.51;39.83
4705;BME280;2366;51.332;6.610;2024-03-06T08:30:46;102036.00;;;21.08;39.78
4705;BME280;2366;51.332;6.610;2024-03-06T08:33:12;102031.91;;;20.93;39.79
4705;BME280;2366;51.332;6.610;2024-03-06T08:35:38;102032.47;;;21.60;39.17
4705;BME280;2366;51.332;6.610;2024-03-06T08:38:04;102038.56;;;21.52;39.32
4705;BME280;2366;51.332;6.610;2024-03-06T08:40:31;102043.75;;;21.74;39.16
4705;BME280;2366;51.332;6.610;2024-03-06T08:42:57;102042.41;;;21.59;38.95
4705;BME280;2366;51.332;6.610;2024-03-06T08:45:22;102046.03;;;21.69;37.92
4705;BME280;2366;51.332;6.610;2024-03-06T08:47:50;102044.75;;;22.04;37.47
4705;BME280;2366;51.332;6.610;2024-03-06T08:50:19;102045.31;;;21.67;37.94
4705;BME280;2366;51.332;6.610;2024-03-06T08:52:44;102052.97;;;22.03;37.77
4705;BME280;2366;51.332;6.610;2024-03-06T08:55:10;102051.56;;;22.59;37.40
4705;BME280;2366;51.332;6.610;2024-03-06T08:57:36;102055.63;;;22.33;36.33
4705;BME280;2366;51.332;6.610;2024-03-06T09:00:06;102053.19;;;21.80;36.72
4705;BME280;2366;51.332;6.610;2024-03-06T09:02:36;102050.50;;;21.38;37.38
4705;BME280;2366;51.332;6.610;2024-03-06T09:05:04;102055.09;;;20.84;38.47
4705;BME280;2366;51.332;6.610;2024-03-06T09:07:29;102050.72;;;20.72;38.89
4705;BME280;2366;51.332;6.610;2024-03-06T09:09:55;102048.03;;;22.18;36.92
4705;BME280;2366;51.332;6.610;2024-03-06T09:12:20;102047.59;;;22.82;36.25
4705;BME280;2366;51.332;6.610;2024-03-06T09:14:46;102060.19;;;23.50;34.46
4705;BME280;2366;51.332;6.610;2024-03-06T09:17:11;102065.22;;;23.35;35.71
4705;BME280;2366;51.332;6.610;2024-03-06T09:19:39;102064.69;;;23.22;35.99
4705;BME280;2366;51.332;6.610;2024-03-06T09:22:05;102059.97;;;23.33;35.30
4705;BME280;2366;51.332;6.610;2024-03-06T09:24:30;102066.44;;;21.93;36.71
4705;BME280;2366;51.332;6.610;2024-03-06T09:26:56;102072.19;;;22.50;36.77
4705;BME280;2366;51.332;6.610;2024-03-06T09:29:21;102068.38;;;23.11;35.97
4705;BME280;2366;51.332;6.610;2024-03-06T09:31:47;102079.94;;;23.70;34.24
4705;BME280;2366;51.332;6.610;2024-03-06T09:34:14;102073.19;;;22.49;35.91
4705;BME280;2366;51.332;6.610;2024-03-06T09:36:46;102086.00;;;22.95;35.78
4705;BME280;2366;51.332;6.610;2024-03-06T09:39:13;102087.28;;;23.97;34.61
4705;BME280;2366;51.332;6.610;2024-03-06T09:41:43;102090.94;;;24.06;34.12
4705;BME280;2366;51.332;6.610;2024-03-06T09:44:09;102084.94;;;23.65;34.05
4705;BME280;2366;51.332;6.610;2024-03-06T09:46:34;102075.94;;;23.17;34.49
4705;BME280;2366;51.332;6.610;2024-03-06T09:49:01;102086.22;;;21.72;36.05
4705;BME280;2366;51.332;6.610;2024-03-06T09:51:26;102090.72;;;20.33;38.72
4705;BME280;2366;51.332;6.610;2024-03-06T09:53:52;102085.28;;;19.54;40.40
4705;BME280;2366;51.332;6.610;2024-03-06T09:56:19;102084.84;;;18.90;41.79
4705;BME280;2366;51.332;6.610;2024-03-06T09:58:45;102083.91;;;18.41;43.62
4705;BME280;2366;51.332;6.610;2024-03-06T10:01:13;102086.84;;;18.38;44.48
4705;BME280;2366;51.332;6.610;2024-03-06T10:03:39;102094.50;;;18.92;43.15
4705;BME280;2366;51.332;6.610;2024-03-06T10:06:07;102094.41;;;18.57;44.10
4705;BME280;2366;51.332;6.610;2024-03-06T10:08:33;102103.41;;;18.19;44.19
4705;BME280;2366;51.332;6.610;2024-03-06T10:10:59;102097.00;;;17.57;45.86
4705;BME280;2366;51.332;6.610;2024-03-06T10:13:25;102096.72;;;17.09;46.56
4705;BME280;2366;51.332;6.610;2024-03-06T10:16:04;102115.38;;;16.83;47.60
4705;BME280;2366;51.332;6.610;2024-03-06T10:18:34;102104.75;;;17.09;48.06
4705;BME280;2366;51.332;6.610;2024-03-06T10:20:59;102111.56;;;17.53;46.65
4705;BME280;2366;51.332;6.610;2024-03-06T10:23:26;102106.59;;;17.34;46.24
4705;BME280;2366;51.332;6.610;2024-03-06T10:25:54;102107.56;;;17.20;47.12
4705;BME280;2366;51.332;6.610;2024-03-06T10:28:21;102108.44;;;17.34;46.68
4705;BME280;2366;51.332;6.610;2024-03-06T10:30:50;102111.84;;;17.23;46.98
4705;BME280;2366;51.332;6.610;2024-03-06T10:33:18;102109.94;;;17.38;47.02
4705;BME280;2366;51.332;6.610;2024-03-06T10:35:45;102113.31;;;17.14;46.83
4705;BME280;2366;51.332;6.610;2024-03-06T10:38:12;102110.78;;;17.25;47.68
4705;BME280;2366;51.332;6.610;2024-03-06T10:40:41;102108.13;;;17.51;46.54
4705;BME280;2366;51.332;6.610;2024-03-06T10:43:07;102120.16;;;17.58;47.02
4705;BME280;2366;51.332;6.610;2024-03-06T10:45:57;102111.50;;;17.68;46.96
4705;BME280;2366;51.332;6.610;2024-03-06T10:48:27;102120.66;;;17.38;46.93
4705;BME280;2366;51.332;6.610;2024-03-06T10:50:53;102114.19;;;17.28;47.21
4705;BME280;2366;51.332;6.610;2024-03-06T10:53:20;102121.97;;;17.05;48.44
4705;BME280;2366;51.332;6.610;2024-03-06T10:55:46;102118.72;;;17.27;47.62
4705;BME280;2366;51.332;6.610;2024-03-06T10:58:12;102122.53;;;17.10;47.22
4705;BME280;2366;51.332;6.610;2024-03-06T11:00:39;102121.97;;;17.05;47.27
4705;BME280;2366;51.332;6.610;2024-03-06T11:03:06;102116.13;;;17.25;47.26
4705;BME280;2366;51.332;6.610;2024-03-06T11:05:38;102121.09;;;17.44;46.86
4705;BME280;2366;51.332;6.610;2024-03-06T11:08:06;102128.78;;;17.23;48.52
4705;BME280;2366;51.332;6.610;2024-03-06T11:10:37;102123.88;;;17.43;47.78
4705;BME280;2366;51.332;6.610;2024-03-06T11:13:04;102127.59;;;17.80;46.49
4705;BME280;2366;51.332;6.610;2024-03-06T11:15:34;102125.41;;;17.73;45.85
4705;BME280;2366;51.332;6.610;2024-03-06T11:21:45;102131.38;;;17.38;46.65
4705;BME280;2366;51.332;6.610;2024-03-06T11:24:13;102133.09;;;17.39;46.20
4705;BME280;2366;51.332;6.610;2024-03-06T11:27:07;102129.25;;;17.56;46.60
4705;BME280;2366;51.332;6.610;2024-03-06T11:30:11;102132.06;;;17.67;46.65
4705;BME280;2366;51.332;6.610;2024-03-06T11:32:57;102126.84;;;17.91;46.31
4705;BME280;2366;51.332;6.610;2024-03-06T11:35:23;102125.00;;;17.79;47.50
4705;BME280;2366;51.332;6.610;2024-03-06T11:37:50;102129.09;;;18.10;46.05
4705;BME280;2366;51.332;6.610;2024-03-06T11:40:22;102133.75;;;18.45;45.75
4705;BME280;2366;51.332;6.610;2024-03-06T11:42:49;102133.19;;;18.53;45.22
4705;BME280;2366;51.332;6.610;2024-03-06T11:45:19;102136.31;;;18.46;44.90
4705;BME280;2366;51.332;6.610;2024-03-06T11:47:58;102133.22;;;18.77;44.72
4705;BME280;2366;51.332;6.610;2024-03-06T11:50:25;102127.09;;;18.75;44.30
4705;BME280;2366;51.332;6.610;2024-03-06T11:52:51;102131.31;;;18.66;44.39
4705;BME280;2366;51.332;6.610;2024-03-06T11:55:17;102131.72;;;18.73;43.69
4705;BME280;2366;51.332;6.610;2024-03-06T11:57:42;102141.38;;;18.38;44.10
4705;BME280;2366;51.332;6.610;2024-03-06T12:00:08;102134.22;;;17.75;44.33
4705;BME280;2366;51.332;6.610;2024-03-06T12:02:36;102139.78;;;17.46;45.90
4705;BME280;2366;51.332;6.610;2024-03-06T12:05:02;102135.66;;;17.28;46.91
4705;BME280;2366;51.332;6.610;2024-03-06T12:07:28;102135.16;;;17.48;46.78
4705;BME280;2366;51.332;6.610;2024-03-06T12:09:53;102144.72;;;17.78;46.34
4705;BME280;2366;51.332;6.610;2024-03-06T12:12:18;102138.31;;;17.68;45.88
4705;BME280;2366;51.332;6.610;2024-03-06T12:14:56;102135.34;;;17.85;45.79
4705;BME280;2366;51.332;6.610;2024-03-06T12:17:22;102138.03;;;17.85;44.91
4705;BME280;2366;51.332;6.610;2024-03-06T12:19:48;102143.97;;;17.76;45.10
4705;BME280;2366;51.332;6.610;2024-03-06T12:22:13;102140.66;;;17.59;44.99
4705;BME280;2366;51.332;6.610;2024-03-06T12:24:40;102139.94;;;17.83;43.83
4705;BME280;2366;51.332;6.610;2024-03-06T12:27:07;102141.97;;;17.92;44.42
4705;BME280;2366;51.332;6.610;2024-03-06T12:29:34;102138.31;;;17.93;44.08
4705;BME280;2366;51.332;6.610;2024-03-06T12:32:01;102136.59;;;18.18;43.62
4705;BME280;2366;51.332;6.610;2024-03-06T12:34:26;102134.53;;;18.34;41.79
4705;BME280;2366;51.332;6.610;2024-03-06T12:36:52;102134.66;;;18.20;42.52
4705;BME280;2366;51.332;6.610;2024-03-06T12:39:18;102130.38;;;18.17;42.65
4705;BME280;2366;51.332;6.610;2024-03-06T12:41:46;102129.09;;;17.84;43.38
4705;BME280;2366;51.332;6.610;2024-03-06T12:44:12;102129.94;;;17.72;44.83
4705;BME280;2366;51.332;6.610;2024-03-06T12:46:38;102131.25;;;17.92;42.83
4705;BME280;2366;51.332;6.610;2024-03-06T12:49:03;102130.81;;;17.98;42.44
4705;BME280;2366;51.332;6.610;2024-03-06T12:51:28;102123.94;;;18.20;40.28
4705;BME280;2366;51.332;6.610;2024-03-06T12:53:54;102129.78;;;18.38;40.30
4705;BME280;2366;51.332;6.610;2024-03-06T12:56:19;102129.69;;;18.39;39.45
4705;BME280;2366;51.332;6.610;2024-03-06T12:58:45;102135.13;;;18.51;39.10
4705;BME280;2366;51.332;6.610;2024-03-06T13:01:10;102119.34;;;18.59;39.39
4705;BME280;2366;51.332;6.610;2024-03-06T13:03:36;102119.50;;;18.68;39.32
4705;BME280;2366;51.332;6.610;2024-03-06T13:06:03;102120.56;;;18.79;39.77
4705;BME280;2366;51.332;6.610;2024-03-06T13:08:29;102125.06;;;18.41;40.83
4705;BME280;2366;51.332;6.610;2024-03-06T13:10:54;102126.09;;;18.52;40.79
4705;BME280;2366;51.332;6.610;2024-03-06T13:13:21;102123.31;;;17.91;41.81
4705;BME280;2366;51.332;6.610;2024-03-06T13:15:49;102124.00;;;18.31;41.39